Time;durP1;ratioP1;P1;durP2;ratioP2;P2;SDS_P1;SDS_P2;PMS_P1;PMS_P2;Temp;Humidity;BMP_temperature;BMP_pressure;BME280_temperature;BME280_humidity;BME280_pressure;Samples;Min_cycle;Max_cycle;Signal;HPM_P1;HPM_P2
2022/04/11 00:00:47;;;;;;;6.25;3.30;;;4.10;99.90;;;;;;5111822;28;20259;-80
2022/04/11 00:03:14;;;;;;;4.93;3.67;;;4.10;99.90;;;;;;5117202;28;20239;-81
2022/04/11 00:05:41;;;;;;;4.45;2.72;;;4.00;99.90;;;;;;5101296;28;20559;-80
2022/04/11 00:08:09;;;;;;;9.15;3.97;;;4.00;99.90;;;;;;5105237;28;20285;-79
2022/04/11 00:10:36;;;;;;;9.93;3.05;;;4.00;99.90;;;;;;5117556;28;20225;-80
2022/04/11 00:13:04;;;;;;;12.30;4.00;;;4.00;99.90;;;;;;5090794;28;20230;-80
2022/04/11 00:15:33;;;;;;;11.90;4.80;;;4.10;99.90;;;;;;5096522;28;20285;-82
2022/04/11 00:18:02;;;;;;;7.35;3.72;;;4.10;99.90;;;;;;5104374;28;20234;-81
2022/04/11 00:20:29;;;;;;;7.57;3.15;;;4.10;99.90;;;;;;5098885;28;20197;-82
2022/04/11 00:22:56;;;;;;;7.30;3.80;;;4.10;99.90;;;;;;5115798;28;20244;-79
2022/04/11 00:25:24;;;;;;;4.30;3.50;;;4.10;99.90;;;;;;5118609;28;20672;-82
2022/04/11 00:27:52;;;;;;;6.53;3.50;;;4.10;99.90;;;;;;5123539;28;20185;-83
2022/04/11 00:30:21;;;;;;;8.73;3.38;;;4.00;99.90;;;;;;5100245;28;20175;-81
2022/04/11 00:32:49;;;;;;;6.82;3.47;;;4.10;99.90;;;;;;5119511;28;20329;-80
2022/04/11 00:35:15;;;;;;;9.30;4.18;;;4.10;99.90;;;;;;5120482;28;20246;-80
2022/04/11 00:37:42;;;;;;;8.88;3.95;;;4.10;99.90;;;;;;5124111;28;20271;-81
2022/04/11 00:40:11;;;;;;;13.30;3.55;;;4.00;99.90;;;;;;5118290;28;20231;-80
2022/04/11 00:42:39;;;;;;;15.45;6.43;;;4.00;99.90;;;;;;5113825;28;20200;-82
2022/04/11 00:45:07;;;;;;;6.90;2.90;;;4.10;99.90;;;;;;5109988;28;20235;-79
2022/04/11 00:47:34;;;;;;;7.72;3.15;;;4.10;99.90;;;;;;5105508;28;20267;-80
2022/04/11 00:50:05;;;;;;;5.68;3.85;;;4.10;99.90;;;;;;5115754;28;20257;-82
2022/04/11 00:52:37;;;;;;;8.00;3.10;;;4.10;99.90;;;;;;5107730;28;20191;-80
2022/04/11 00:55:05;;;;;;;6.32;4.13;;;4.20;99.90;;;;;;5088196;28;20233;-79
2022/04/11 00:57:32;;;;;;;9.32;3.15;;;4.10;99.90;;;;;;5125869;28;20216;-81
2022/04/11 01:00:00;;;;;;;6.40;3.67;;;4.20;99.90;;;;;;5126065;28;20202;-79
2022/04/11 01:02:27;;;;;;;11.02;4.18;;;4.20;99.90;;;;;;5106676;28;20237;-79
2022/04/11 01:04:54;;;;;;;5.57;3.40;;;4.20;99.90;;;;;;5108457;28;20227;-78
2022/04/11 01:07:21;;;;;;;5.03;3.55;;;4.20;99.90;;;;;;5108780;28;20198;-79
2022/04/11 01:09:48;;;;;;;7.38;3.20;;;4.20;99.90;;;;;;5118255;28;20229;-79
2022/04/11 01:12:16;;;;;;;5.28;2.90;;;4.30;99.90;;;;;;5130323;28;20197;-79
2022/04/11 01:14:44;;;;;;;6.70;3.50;;;4.30;99.90;;;;;;5124453;28;20228;-78
2022/04/11 01:17:20;;;;;;;10.48;5.05;;;4.30;99.90;;;;;;5128432;28;20212;-78
2022/04/11 01:19:47;;;;;;;6.40;3.13;;;4.30;99.90;;;;;;5116762;28;20228;-77
2022/04/11 01:22:15;;;;;;;10.50;4.90;;;4.30;99.90;;;;;;5115030;28;20214;-78
2022/04/11 01:24:42;;;;;;;5.93;3.17;;;4.30;99.90;;;;;;5118413;28;20242;-79
2022/04/11 01:27:09;;;;;;;7.00;3.70;;;4.30;99.90;;;;;;5108522;28;20649;-82
2022/04/11 01:29:36;;;;;;;5.88;4.75;;;4.30;99.90;;;;;;5119483;28;20202;-81
2022/04/11 01:32:04;;;;;;;9.05;3.45;;;4.50;99.90;;;;;;5124206;28;20220;-79
2022/04/11 01:34:31;;;;;;;6.07;3.28;;;4.40;99.90;;;;;;5117043;28;20228;-79
2022/04/11 01:36:58;;;;;;;9.15;4.57;;;4.40;99.90;;;;;;5114602;28;20213;-79
2022/04/11 01:39:27;;;;;;;7.70;3.97;;;4.40;99.90;;;;;;5115489;28;20208;-81
2022/04/11 01:41:54;;;;;;;8.55;3.83;;;4.50;99.90;;;;;;5105095;28;20206;-80
2022/04/11 01:44:21;;;;;;;8.00;5.35;;;4.50;99.90;;;;;;5106339;28;20235;-80
2022/04/11 01:46:50;;;;;;;8.73;4.07;;;4.70;99.90;;;;;;5115528;28;20236;-79
2022/04/11 01:49:17;;;;;;;8.63;3.60;;;4.60;99.90;;;;;;5103944;28;20213;-79
2022/04/11 01:51:44;;;;;;;11.30;3.75;;;4.50;99.90;;;;;;5101839;28;20282;-80
2022/04/11 01:54:11;;;;;;;8.10;3.60;;;4.50;99.90;;;;;;5113638;28;20228;-77
2022/04/11 01:56:39;;;;;;;6.00;3.97;;;4.60;99.90;;;;;;5099981;28;20752;-78
2022/04/11 01:59:06;;;;;;;6.03;2.95;;;4.50;99.90;;;;;;5100338;28;20205;-79
2022/04/11 02:01:33;;;;;;;10.45;4.00;;;4.50;99.90;;;;;;5101796;28;20225;-79
2022/04/11 02:04:00;;;;;;;13.68;5.60;;;4.60;99.90;;;;;;5101630;28;20290;-81
2022/04/11 02:06:27;;;;;;;9.35;4.55;;;4.60;99.90;;;;;;5104313;28;20194;-78
2022/04/11 02:08:54;;;;;;;10.55;3.85;;;4.60;99.90;;;;;;5111879;28;20205;-79
2022/04/11 02:11:21;;;;;;;8.38;5.13;;;4.60;99.90;;;;;;5110337;28;20209;-80
2022/04/11 02:13:49;;;;;;;9.68;4.95;;;4.60;99.90;;;;;;5105908;28;20252;-80
2022/04/11 02:16:16;;;;;;;7.75;3.47;;;4.70;99.90;;;;;;5107005;28;20296;-80
2022/04/11 02:18:43;;;;;;;4.85;3.45;;;4.70;99.90;;;;;;5109581;28;20209;-80
2022/04/11 02:21:10;;;;;;;7.15;4.28;;;4.60;99.90;;;;;;5116585;28;20265;-79
2022/04/11 02:23:46;;;;;;;7.30;5.20;;;4.70;99.90;;;;;;5120968;28;20579;-80
2022/04/11 02:26:13;;;;;;;9.30;4.45;;;4.60;99.90;;;;;;5115347;28;20251;-78
2022/04/11 02:28:39;;;;;;;8.70;3.42;;;4.60;99.90;;;;;;5108513;28;20201;-79
2022/04/11 02:31:08;;;;;;;4.95;3.75;;;4.70;99.90;;;;;;5120179;28;20305;-81
2022/04/11 02:33:35;;;;;;;7.55;3.90;;;4.50;99.90;;;;;;5117537;28;20268;-79
2022/04/11 02:36:02;;;;;;;12.20;4.15;;;4.50;99.90;;;;;;5112803;28;20892;-80
2022/04/11 02:38:29;;;;;;;7.88;3.78;;;4.60;99.90;;;;;;5117105;28;20202;-80
2022/04/11 02:40:55;;;;;;;6.03;3.80;;;4.50;99.90;;;;;;5123509;28;20217;-79
2022/04/11 02:43:22;;;;;;;7.07;3.22;;;4.50;99.90;;;;;;5119255;28;20225;-79
2022/04/11 02:45:49;;;;;;;9.70;5.22;;;4.50;99.90;;;;;;5100483;28;20332;-80
2022/04/11 02:48:17;;;;;;;11.27;4.05;;;4.50;99.90;;;;;;5104360;28;20727;-79
2022/04/11 02:50:44;;;;;;;9.68;4.20;;;4.50;99.90;;;;;;5111611;28;20682;-78
2022/04/11 02:53:11;;;;;;;22.80;4.50;;;4.60;99.90;;;;;;5106111;28;20214;-80
2022/04/11 02:55:38;;;;;;;5.82;3.70;;;4.50;99.90;;;;;;5085558;28;20222;-79
2022/04/11 02:58:07;;;;;;;10.70;4.32;;;4.60;99.90;;;;;;5088812;28;20209;-78
2022/04/11 03:00:34;;;;;;;8.27;3.75;;;4.60;99.90;;;;;;5108357;28;20217;-80
2022/04/11 03:03:01;;;;;;;4.03;3.08;;;4.60;99.90;;;;;;5105089;28;20754;-79
2022/04/11 03:05:30;;;;;;;6.47;4.10;;;4.60;99.90;;;;;;5123839;28;20236;-80
2022/04/11 03:07:56;;;;;;;6.00;4.18;;;4.70;99.90;;;;;;5105238;28;20206;-81
2022/04/11 03:10:23;;;;;;;12.95;4.38;;;4.70;99.90;;;;;;5122843;28;20208;-79
2022/04/11 03:12:50;;;;;;;6.90;4.50;;;4.60;99.90;;;;;;5103812;28;20218;-79
2022/04/11 03:15:18;;;;;;;6.65;4.25;;;4.60;99.90;;;;;;5114562;28;20210;-78
2022/04/11 03:17:45;;;;;;;8.50;4.53;;;4.70;99.90;;;;;;5113347;28;20674;-78
2022/04/11 03:20:12;;;;;;;9.55;4.78;;;4.50;99.90;;;;;;5105582;28;20217;-79
2022/04/11 03:22:40;;;;;;;7.95;4.85;;;4.50;99.90;;;;;;5107824;28;20213;-79
2022/04/11 03:25:09;;;;;;;7.93;4.35;;;4.50;99.90;;;;;;5113949;28;20202;-81
2022/04/11 03:27:35;;;;;;;7.38;3.90;;;4.40;99.90;;;;;;5112987;28;20210;-81
2022/04/11 03:30:02;;;;;;;9.98;3.78;;;4.40;99.90;;;;;;5107131;28;20213;-80
2022/04/11 03:32:29;;;;;;;12.15;4.22;;;4.40;99.90;;;;;;5107869;28;20197;-82
2022/04/11 03:34:56;;;;;;;6.35;4.15;;;4.40;99.90;;;;;;5113690;28;20198;-80
2022/04/11 03:37:24;;;;;;;5.38;4.05;;;4.40;99.90;;;;;;5121929;28;20205;-80
2022/04/11 03:39:52;;;;;;;7.53;4.25;;;4.40;99.90;;;;;;5107683;28;20202;-82
2022/04/11 03:42:19;;;;;;;4.47;3.70;;;4.40;99.90;;;;;;5098093;28;20243;-81
2022/04/11 03:44:49;;;;;;;10.38;4.43;;;4.40;99.90;;;;;;5112682;28;20221;-78
2022/04/11 03:47:16;;;;;;;6.15;4.55;;;4.40;99.90;;;;;;5127882;28;20205;-84
2022/04/11 03:49:43;;;;;;;8.05;4.47;;;4.40;99.90;;;;;;5122466;28;20202;-83
2022/04/11 03:52:10;;;;;;;8.70;5.05;;;4.50;99.90;;;;;;5130031;28;20210;-83
2022/04/11 03:54:37;;;;;;;8.85;4.10;;;4.40;99.90;;;;;;5109335;28;20213;-79
2022/04/11 03:57:05;;;;;;;7.85;4.88;;;4.40;99.90;;;;;;5128406;28;20673;-78
2022/04/11 03:59:32;;;;;;;5.93;4.40;;;4.30;99.90;;;;;;5132742;28;20182;-82
2022/04/11 04:01:59;;;;;;;11.95;4.90;;;4.50;99.90;;;;;;5113520;28;20210;-81
2022/04/11 04:04:26;;;;;;;12.02;5.05;;;4.30;99.90;;;;;;5116377;28;20224;-78
2022/04/11 04:06:53;;;;;;;10.18;4.70;;;4.30;99.90;;;;;;5133563;28;20210;-79
2022/04/11 04:09:20;;;;;;;10.52;5.40;;;4.20;99.90;;;;;;5112955;28;20190;-79
2022/04/11 04:11:47;;;;;;;8.73;4.72;;;4.20;99.90;;;;;;5106667;28;20292;-79
2022/04/11 04:14:20;;;;;;;10.88;7.07;;;4.30;99.90;;;;;;5111508;28;20520;-80
2022/04/11 04:16:53;;;;;;;12.07;5.70;;;4.30;99.90;;;;;;5111173;28;20256;-78
2022/04/11 04:19:20;;;;;;;14.43;5.95;;;4.40;99.90;;;;;;5104860;28;20202;-79
2022/04/11 04:21:47;;;;;;;7.85;4.78;;;4.20;99.90;;;;;;5104032;28;20210;-78
2022/04/11 04:24:14;;;;;;;14.10;5.65;;;4.20;99.90;;;;;;5114381;28;20223;-81
2022/04/11 04:26:41;;;;;;;9.93;5.63;;;4.20;99.90;;;;;;5115261;28;20677;-80
2022/04/11 04:29:11;;;;;;;8.27;5.55;;;4.20;99.90;;;;;;5111624;28;20198;-78
2022/04/11 04:31:39;;;;;;;11.57;5.65;;;4.20;99.90;;;;;;5105689;28;20655;-81
2022/04/11 04:34:06;;;;;;;10.00;5.82;;;4.20;99.90;;;;;;5103507;28;20253;-79
2022/04/11 04:36:33;;;;;;;8.02;5.63;;;4.20;99.90;;;;;;5101045;28;20277;-79
2022/04/11 04:39:07;;;;;;;11.10;7.63;;;4.20;99.90;;;;;;5110121;28;20269;-80
2022/04/11 04:41:35;;;;;;;16.90;7.57;;;4.20;99.90;;;;;;5113609;28;20206;-82
2022/04/11 04:44:02;;;;;;;10.93;6.53;;;4.20;99.90;;;;;;5120566;28;20292;-82
2022/04/11 04:46:28;;;;;;;10.95;6.88;;;4.20;99.90;;;;;;5109989;28;20292;-79
2022/04/11 04:48:57;;;;;;;9.05;6.47;;;4.30;99.90;;;;;;5112962;28;20225;-78
2022/04/11 04:51:24;;;;;;;6.40;5.28;;;4.30;99.90;;;;;;5105811;28;20292;-80
2022/04/11 04:53:51;;;;;;;10.68;7.50;;;4.40;99.90;;;;;;5105346;28;20222;-80
2022/04/11 04:56:18;;;;;;;9.98;6.07;;;4.40;99.90;;;;;;5115273;28;20282;-79
2022/04/11 04:58:48;;;;;;;10.73;5.90;;;4.40;99.90;;;;;;5116226;28;20261;-81
2022/04/11 05:03:59;;;;;;;10.50;5.85;;;4.50;99.90;;;;;;5097439;28;20253;-80
2022/04/11 05:06:25;;;;;;;10.07;5.43;;;4.50;99.90;;;;;;5109372;28;20954;-80
2022/04/11 05:08:52;;;;;;;15.23;6.57;;;4.80;99.90;;;;;;5108193;28;20241;-79
2022/04/11 05:11:20;;;;;;;15.27;7.13;;;4.70;99.90;;;;;;5108842;28;20197;-82
2022/04/11 05:13:47;;;;;;;10.02;5.22;;;4.70;99.90;;;;;;5114468;28;20763;-81
2022/04/11 05:16:15;;;;;;;13.57;6.95;;;4.70;99.90;;;;;;5112087;28;20764;-79
2022/04/11 05:18:42;;;;;;;8.02;6.22;;;4.70;99.90;;;;;;5112128;28;20206;-80
2022/04/11 05:21:10;;;;;;;9.68;6.65;;;4.70;99.90;;;;;;5102628;28;20225;-81
2022/04/11 05:23:37;;;;;;;10.93;6.65;;;4.70;99.90;;;;;;5116070;28;20304;-80
2022/04/11 05:26:05;;;;;;;8.18;5.20;;;4.80;99.90;;;;;;5099122;28;20265;-80
2022/04/11 05:28:32;;;;;;;13.98;5.07;;;4.90;99.90;;;;;;5116453;28;20201;-80
2022/04/11 05:31:00;;;;;;;10.63;6.20;;;5.00;99.90;;;;;;5116025;28;20210;-80
2022/04/11 05:33:27;;;;;;;15.32;6.68;;;5.10;99.90;;;;;;5115025;28;20740;-79
2022/04/11 05:35:56;;;;;;;15.98;9.15;;;5.10;99.90;;;;;;5103180;28;20220;-81
2022/04/11 05:38:24;;;;;;;46.42;33.05;;;5.20;99.90;;;;;;5119158;28;20204;-80
2022/04/11 05:40:51;;;;;;;55.97;33.65;;;5.20;99.90;;;;;;5097614;28;20202;-79
2022/04/11 05:43:21;;;;;;;38.90;22.27;;;5.30;99.90;;;;;;5100613;28;20250;-81
2022/04/11 05:45:48;;;;;;;16.17;11.38;;;5.40;99.90;;;;;;5099148;28;20662;-82
2022/04/11 05:48:15;;;;;;;16.50;10.13;;;5.50;99.90;;;;;;5113906;28;20201;-81
2022/04/11 05:50:42;;;;;;;19.50;11.50;;;5.60;99.90;;;;;;5102005;28;20206;-80
2022/04/11 05:53:09;;;;;;;9.55;6.93;;;5.50;99.90;;;;;;5095315;28;20211;-80
2022/04/11 05:55:37;;;;;;;8.20;6.00;;;5.50;99.90;;;;;;5094643;28;20226;-81
2022/04/11 05:58:04;;;;;;;11.23;5.95;;;5.60;99.90;;;;;;5095559;28;20195;-80
2022/04/11 06:00:31;;;;;;;8.40;6.55;;;5.60;99.90;;;;;;5095855;28;20199;-80
2022/04/11 06:02:58;;;;;;;13.55;8.07;;;5.60;99.90;;;;;;5095643;28;20202;-79
2022/04/11 06:05:25;;;;;;;23.52;10.77;;;5.60;99.90;;;;;;5096751;28;20206;-81
2022/04/11 06:07:52;;;;;;;19.08;10.75;;;5.70;99.90;;;;;;5097139;28;20188;-81
2022/04/11 06:10:19;;;;;;;25.00;12.80;;;5.90;99.90;;;;;;5096558;28;20199;-81
2022/04/11 06:12:49;;;;;;;24.60;10.68;;;6.20;99.90;;;;;;5103232;28;20210;-81
2022/04/11 06:15:18;;;;;;;18.20;10.70;;;6.50;99.90;;;;;;5099055;28;20203;-83
2022/04/11 06:17:45;;;;;;;11.90;8.98;;;6.80;99.90;;;;;;5101524;28;20214;-79
2022/04/11 06:20:13;;;;;;;13.75;7.93;;;7.00;99.90;;;;;;5119463;28;20233;-79
2022/04/11 06:22:41;;;;;;;12.25;6.88;;;7.20;99.90;;;;;;5118415;28;20218;-79
2022/04/11 06:25:09;;;;;;;13.68;6.35;;;7.30;99.90;;;;;;5105514;28;20201;-79
2022/04/11 06:27:37;;;;;;;17.75;7.22;;;7.30;99.90;;;;;;5098128;28;20205;-82
2022/04/11 06:30:07;;;;;;;11.68;6.53;;;7.50;99.90;;;;;;5097879;28;20247;-79
2022/04/11 06:32:34;;;;;;;11.45;6.65;;;7.60;99.90;;;;;;5098110;28;20223;-79
2022/04/11 06:35:02;;;;;;;11.48;7.55;;;7.70;99.90;;;;;;5102155;28;20301;-78
2022/04/11 06:37:29;;;;;;;12.65;7.93;;;7.70;99.90;;;;;;5106242;28;20216;-79
2022/04/11 06:39:56;;;;;;;14.48;8.57;;;7.50;99.90;;;;;;5118677;28;20272;-82
2022/04/11 06:42:23;;;;;;;12.73;6.85;;;7.60;99.90;;;;;;5107708;28;20207;-81
2022/04/11 06:44:51;;;;;;;11.95;6.57;;;7.80;99.90;;;;;;5104069;28;20202;-82
2022/04/11 06:47:21;;;;;;;11.60;6.38;;;7.80;99.90;;;;;;5115112;28;20301;-82
2022/04/11 06:49:49;;;;;;;15.63;5.13;;;7.80;99.90;;;;;;5114790;28;20201;-84
2022/04/11 06:52:16;;;;;;;9.57;6.80;;;8.00;99.90;;;;;;5121786;28;20295;-80
2022/04/11 06:54:44;;;;;;;11.40;7.40;;;8.10;99.90;;;;;;5117497;28;20906;-81
2022/04/11 06:57:11;;;;;;;9.13;5.97;;;8.40;99.90;;;;;;5108768;28;20838;-81
2022/04/11 06:59:38;;;;;;;12.38;6.15;;;8.70;99.90;;;;;;5108607;28;20219;-80
2022/04/11 07:02:06;;;;;;;9.73;6.00;;;9.10;99.90;;;;;;5104972;28;20199;-82
2022/04/11 07:04:34;;;;;;;8.27;5.57;;;9.10;99.90;;;;;;5106996;28;20250;-83
2022/04/11 07:07:04;;;;;;;9.63;6.57;;;9.20;99.90;;;;;;5114698;28;20229;-80
2022/04/11 07:09:31;;;;;;;7.25;6.10;;;9.50;99.90;;;;;;5109962;28;20225;-82
2022/04/11 07:11:58;;;;;;;8.55;5.75;;;9.70;99.90;;;;;;5106092;28;20198;-81
2022/04/11 07:14:26;;;;;;;8.80;6.63;;;10.00;99.90;;;;;;5109700;28;20217;-80
2022/04/11 07:16:53;;;;;;;11.93;6.35;;;10.20;99.90;;;;;;5107758;28;20226;-83
2022/04/11 07:19:20;;;;;;;10.38;6.10;;;10.50;99.90;;;;;;5100362;28;20204;-83
2022/04/11 07:21:48;;;;;;;10.25;6.70;;;10.70;99.90;;;;;;5091050;28;20283;-81
2022/04/11 07:24:16;;;;;;;6.07;5.47;;;11.20;99.90;;;;;;5092308;28;20239;-82
2022/04/11 07:26:43;;;;;;;11.48;6.18;;;11.80;99.90;;;;;;5105170;28;20260;-80
2022/04/11 07:29:11;;;;;;;7.60;5.50;;;12.20;99.90;;;;;;5103394;28;20210;-81
2022/04/11 07:31:38;;;;;;;13.10;5.65;;;12.70;98.90;;;;;;5094439;28;20257;-81
2022/04/11 07:34:05;;;;;;;8.23;6.28;;;13.60;97.60;;;;;;5107715;28;20285;-81
2022/04/11 07:36:32;;;;;;;9.63;5.47;;;14.10;96.80;;;;;;5115190;28;20230;-81
2022/04/11 07:39:00;;;;;;;10.25;5.35;;;14.70;93.40;;;;;;5111053;28;20289;-81
2022/04/11 07:41:28;;;;;;;10.65;6.25;;;15.20;92.40;;;;;;5103942;28;20206;-82
2022/04/11 07:43:56;;;;;;;10.65;5.85;;;15.20;91.70;;;;;;5103722;28;20222;-80
2022/04/11 07:46:24;;;;;;;7.75;4.95;;;15.00;91.10;;;;;;5115846;28;20257;-80
2022/04/11 07:48:51;;;;;;;6.00;4.80;;;14.70;90.80;;;;;;5115668;28;20297;-79
2022/04/11 07:51:17;;;;;;;6.80;5.15;;;14.80;91.80;;;;;;5116036;28;20217;-82
2022/04/11 07:53:44;;;;;;;7.70;4.65;;;15.10;91.00;;;;;;5118537;28;20633;-79
2022/04/11 07:56:13;;;;;;;8.10;5.53;;;15.70;89.00;;;;;;5114961;28;20675;-81
2022/04/11 07:58:40;;;;;;;7.37;4.70;;;16.00;87.60;;;;;;5093283;28;20233;-79
2022/04/11 08:01:07;;;;;;;7.10;4.47;;;16.60;85.80;;;;;;5117218;28;20995;-79
2022/04/11 08:03:34;;;;;;;9.10;5.07;;;17.10;84.60;;;;;;5105185;28;20456;-83
2022/04/11 08:06:01;;;;;;;7.60;4.50;;;17.40;82.00;;;;;;5110777;28;20476;-82
2022/04/11 08:08:28;;;;;;;7.37;4.87;;;17.80;79.10;;;;;;5107807;28;20503;-82
2022/04/11 08:10:56;;;;;;;6.40;4.10;;;17.20;79.80;;;;;;5106456;28;20467;-79
2022/04/11 08:13:24;;;;;;;8.02;5.15;;;16.50;79.50;;;;;;5114318;28;20228;-81
2022/04/11 08:15:51;;;;;;;9.50;4.72;;;16.30;82.20;;;;;;5104299;28;20547;-80
2022/04/11 08:18:18;;;;;;;9.17;4.37;;;16.30;82.60;;;;;;5101486;28;20328;-80
2022/04/11 08:20:45;;;;;;;6.07;3.70;;;16.50;81.10;;;;;;5108034;28;20442;-80
2022/04/11 08:23:12;;;;;;;6.90;4.47;;;16.90;79.40;;;;;;5112626;28;20468;-79
2022/04/11 08:25:39;;;;;;;9.40;4.30;;;16.70;78.90;;;;;;5096330;28;20495;-80
2022/04/11 08:28:06;;;;;;;9.50;3.97;;;16.70;77.50;;;;;;5119501;28;20537;-82
2022/04/11 08:30:50;;;;;;;10.67;3.53;;;16.80;77.70;;;;;;5102466;28;20451;-80
2022/04/11 08:33:18;;;;;;;15.13;3.90;;;16.80;77.20;;;;;;5111306;28;20551;-82
2022/04/11 08:35:45;;;;;;;5.50;3.00;;;16.60;79.00;;;;;;5113832;28;20212;-81
2022/04/11 08:38:12;;;;;;;9.10;4.20;;;16.80;79.30;;;;;;5100775;28;20476;-81
2022/04/11 08:40:40;;;;;;;7.17;4.10;;;17.60;75.80;;;;;;5097740;28;20452;-80
2022/04/11 08:43:07;;;;;;;5.13;3.57;;;18.00;72.90;;;;;;5098721;28;20549;-81
2022/04/11 08:45:35;;;;;;;6.93;3.93;;;17.80;71.50;;;;;;5116539;28;20945;-79
2022/04/11 08:48:02;;;;;;;3.80;3.10;;;17.90;72.50;;;;;;5114074;28;20460;-80
2022/04/11 08:50:29;;;;;;;3.90;3.00;;;18.40;69.50;;;;;;5114612;28;20816;-81
2022/04/11 08:52:57;;;;;;;9.90;3.33;;;18.70;68.80;;;;;;5120384;28;21019;-81
2022/04/11 08:55:24;;;;;;;7.57;3.70;;;19.20;68.30;;;;;;5110071;28;20912;-80
2022/04/11 08:57:51;;;;;;;6.40;3.27;;;19.80;64.60;;;;;;5119084;28;20521;-83
2022/04/11 09:00:20;;;;;;;9.03;4.60;;;19.10;63.30;;;;;;5130448;28;20432;-82
2022/04/11 09:02:49;;;;;;;7.80;3.40;;;19.90;64.90;;;;;;5126735;28;20462;-82
2022/04/11 09:05:20;;;;;;;12.30;4.50;;;20.20;63.70;;;;;;5129219;28;20431;-83
2022/04/11 09:07:50;;;;;;;5.47;3.37;;;20.60;64.00;;;;;;5128112;28;20462;-82
2022/04/11 09:10:21;;;;;;;9.83;4.37;;;21.00;63.70;;;;;;5125953;28;20527;-81
2022/04/11 09:12:49;;;;;;;12.80;4.73;;;21.50;61.80;;;;;;5109287;28;20469;-82
2022/04/11 09:15:16;;;;;;;6.70;4.27;;;22.10;57.60;;;;;;5122065;28;20458;-82
2022/04/11 09:17:44;;;;;;;8.27;3.63;;;22.30;57.00;;;;;;5117131;28;20564;-80
2022/04/11 09:20:14;;;;;;;5.80;4.13;;;22.40;54.40;;;;;;5109984;28;20472;-80
2022/04/11 09:22:42;;;;;;;7.50;4.23;;;23.60;53.90;;;;;;5121825;28;20443;-80
2022/04/11 09:25:10;;;;;;;7.03;4.20;;;24.00;52.50;;;;;;5090861;28;20467;-83
2022/04/11 09:27:39;;;;;;;9.50;3.93;;;23.20;50.10;;;;;;5117818;28;20471;-80
2022/04/11 09:30:23;;;;;;;6.93;4.10;;;23.20;51.30;;;;;;5117997;28;20424;-81
2022/04/11 09:32:54;;;;;;;5.43;3.10;;;22.00;51.00;;;;;;5103130;28;20468;-80
2022/04/11 09:35:24;;;;;;;15.40;11.63;;;21.60;51.70;;;;;;5102791;28;20507;-81
2022/04/11 09:38:09;;;;;;;8.90;4.40;;;21.90;52.10;;;;;;5103212;28;20486;-81
2022/04/11 09:40:41;;;;;;;7.30;3.60;;;21.70;51.10;;;;;;5093515;28;20472;-81
2022/04/11 09:43:09;;;;;;;4.90;2.63;;;21.10;49.40;;;;;;5109402;28;20476;-79
2022/04/11 09:45:42;;;;;;;5.53;3.47;;;20.80;50.60;;;;;;5108150;28;20451;-79
2022/04/11 09:48:10;;;;;;;4.17;2.60;;;20.30;51.40;;;;;;5111284;28;20941;-80
2022/04/11 09:50:38;;;;;;;3.77;2.90;;;19.80;50.50;;;;;;5083363;28;20522;-82
2022/04/11 09:53:13;;;;;;;4.20;2.60;;;19.20;51.40;;;;;;5112346;28;20468;-81
2022/04/11 09:55:42;;;;;;;2.53;1.77;;;19.60;49.40;;;;;;5106849;28;21055;-80
2022/04/11 09:58:09;;;;;;;5.70;2.97;;;19.90;49.80;;;;;;5113438;28;20821;-80
2022/04/11 10:00:38;;;;;;;5.90;2.67;;;19.80;50.30;;;;;;5116955;28;20514;-82
2022/04/11 10:03:06;;;;;;;4.00;2.23;;;19.90;49.40;;;;;;5103547;28;20461;-79
2022/04/11 10:05:34;;;;;;;3.60;1.90;;;20.10;48.50;;;;;;5113600;28;20969;-80
2022/04/11 10:08:09;;;;;;;3.83;2.20;;;20.90;48.90;;;;;;5112656;28;20796;-81
2022/04/11 10:10:38;;;;;;;5.07;2.20;;;21.40;47.70;;;;;;5107438;28;20450;-81
2022/04/11 10:13:07;;;;;;;4.53;2.20;;;21.00;45.40;;;;;;5106903;28;20508;-81
2022/04/11 10:15:36;;;;;;;4.37;2.83;;;20.70;47.30;;;;;;5102723;28;20474;-80
2022/04/11 10:18:04;;;;;;;3.20;1.40;;;20.60;47.00;;;;;;5108603;28;20503;-80
2022/04/11 10:20:37;;;;;;;2.97;1.77;;;20.90;47.10;;;;;;5106793;28;20542;-81
2022/04/11 10:23:15;;;;;;;5.47;2.93;;;21.50;46.50;;;;;;5101269;28;20471;-81
2022/04/11 10:25:46;;;;;;;4.23;2.63;;;21.80;46.70;;;;;;5103290;28;20435;-80
2022/04/11 10:28:18;;;;;;;4.33;2.30;;;21.40;46.20;;;;;;5114676;28;20447;-81
2022/04/11 10:30:47;;;;;;;4.20;2.30;;;20.60;46.20;;;;;;5093701;28;20546;-80
2022/04/11 10:33:14;;;;;;;5.23;2.03;;;20.30;49.00;;;;;;5105124;28;20472;-80
2022/04/11 10:35:43;;;;;;;4.23;2.30;;;20.30;48.90;;;;;;5114425;28;20450;-81
2022/04/11 10:38:15;;;;;;;3.60;2.10;;;20.20;49.00;;;;;;5121420;28;20478;-82
2022/04/11 10:40:49;;;;;;;7.17;2.93;;;20.30;49.70;;;;;;5115244;28;20447;-82
2022/04/11 10:43:18;;;;;;;5.33;2.90;;;19.70;50.10;;;;;;5114075;28;20459;-80
2022/04/11 10:45:56;;;;;;;6.07;3.00;;;18.70;51.10;;;;;;5107977;28;20483;-79
2022/04/11 10:49:05;;;;;;;6.70;2.50;;;18.00;52.50;;;;;;5106799;28;20438;-81
2022/04/11 10:51:32;;;;;;;4.65;2.70;;;17.40;52.80;;;;;;5103505;28;20525;-80
2022/04/11 10:54:19;;;;;;;4.85;2.20;;;16.70;54.20;;;;;;5109283;28;20697;-81
2022/04/11 10:56:54;;;;;;;6.45;2.63;;;16.50;54.50;;;;;;5117416;28;20202;-79
2022/04/11 10:59:28;;;;;;;2.33;1.98;;;16.20;55.40;;;;;;5118933;28;20242;-81
2022/04/11 11:02:05;;;;;;;6.45;2.53;;;16.00;55.90;;;;;;5104700;28;20289;-78
2022/04/11 11:04:33;;;;;;;7.03;2.60;;;16.20;57.50;;;;;;5106910;28;20230;-81
2022/04/11 11:07:25;;;;;;;5.20;2.40;;;16.10;57.20;;;;;;5115645;28;20463;-79
2022/04/11 11:09:58;;;;;;;10.35;2.60;;;16.30;55.10;;;;;;5099100;28;20214;-79
2022/04/11 11:12:25;;;;;;;5.53;2.60;;;16.50;55.90;;;;;;5112917;28;20286;-81
2022/04/11 11:14:53;;;;;;;4.50;2.60;;;16.50;57.00;;;;;;5111744;28;20210;-82
2022/04/11 11:17:19;;;;;;;2.97;2.60;;;16.20;57.00;;;;;;5100324;28;20220;-80
2022/04/11 11:20:11;;;;;;;3.67;2.42;;;16.20;58.80;;;;;;5122686;28;20194;-79
2022/04/11 11:23:16;;;;;;;8.00;2.88;;;16.10;58.10;;;;;;5097553;28;20652;-80
2022/04/11 11:25:45;;;;;;;5.10;2.63;;;15.60;56.10;;;;;;5117923;28;20209;-80
2022/04/11 11:28:13;;;;;;;4.10;2.63;;;15.00;56.40;;;;;;5104245;28;20233;-80
2022/04/11 11:30:40;;;;;;;5.75;2.80;;;15.10;58.30;;;;;;5109535;28;20197;-79
2022/04/11 11:33:12;;;;;;;7.35;3.38;;;14.90;57.70;;;;;;5113659;28;20214;-80
2022/04/11 11:35:49;;;;;;;5.97;3.40;;;15.20;58.20;;;;;;5115081;28;20206;-81
2022/04/11 11:38:20;;;;;;;5.13;2.90;;;15.30;58.40;;;;;;5103820;28;20678;-80
2022/04/11 11:40:57;;;;;;;3.58;2.70;;;15.50;58.70;;;;;;5111782;28;20254;-82
2022/04/11 11:43:25;;;;;;;3.72;2.65;;;15.20;55.90;;;;;;5111207;28;20225;-81
2022/04/11 11:45:52;;;;;;;2.90;2.15;;;14.90;57.50;;;;;;5106808;28;20230;-80
2022/04/11 11:48:22;;;;;;;7.47;2.70;;;15.00;59.00;;;;;;5104030;28;20688;-79
2022/04/11 11:50:49;;;;;;;4.13;2.13;;;14.80;57.40;;;;;;5104244;28;20222;-81
2022/04/11 11:53:16;;;;;;;7.82;2.80;;;15.00;57.20;;;;;;5105922;28;20278;-80
2022/04/11 11:55:56;;;;;;;3.50;2.22;;;15.00;55.80;;;;;;5104476;28;20583;-81
2022/04/11 11:58:34;;;;;;;3.58;2.72;;;14.90;56.60;;;;;;5106394;28;20308;-80
2022/04/11 12:01:01;;;;;;;8.30;3.40;;;14.70;57.10;;;;;;5113353;28;20209;-80
2022/04/11 12:06:12;;;;;;;3.65;2.95;;;14.60;58.40;;;;;;5112814;28;20382;-80
2022/04/11 12:08:39;;;;;;;6.28;2.97;;;14.50;59.00;;;;;;5132578;28;20257;-83
2022/04/11 12:11:08;;;;;;;4.90;2.70;;;14.70;59.70;;;;;;5129159;28;20210;-82
2022/04/11 12:13:35;;;;;;;4.95;3.10;;;14.40;59.80;;;;;;5131377;28;20221;-82
2022/04/11 12:16:10;;;;;;;7.72;3.60;;;14.40;59.60;;;;;;5121167;28;20205;-79
2022/04/11 12:18:59;;;;;;;4.80;2.95;;;14.50;59.50;;;;;;5120014;28;20395;-79
2022/04/11 12:21:33;;;;;;;6.38;3.03;;;14.30;59.40;;;;;;5097487;28;20766;-81
2022/04/11 12:24:01;;;;;;;5.30;3.08;;;14.10;59.80;;;;;;5104400;28;20305;-81
2022/04/11 12:26:32;;;;;;;4.65;3.25;;;14.10;59.00;;;;;;5110393;28;20198;-80
2022/04/11 12:29:02;;;;;;;3.78;2.95;;;14.10;60.80;;;;;;5084942;28;20270;-84
2022/04/11 12:31:30;;;;;;;4.93;2.92;;;14.10;59.30;;;;;;5093205;28;20800;-81
2022/04/11 12:33:57;;;;;;;4.20;3.20;;;14.20;59.90;;;;;;5110946;28;20247;-83
2022/04/11 12:36:27;;;;;;;4.13;3.03;;;14.30;61.00;;;;;;5107778;28;20257;-81
2022/04/11 12:38:56;;;;;;;6.75;3.70;;;14.20;61.40;;;;;;5115505;28;20297;-82
2022/04/11 12:41:47;;;;;;;4.95;2.88;;;14.20;61.80;;;;;;5101869;28;20242;-79
2022/04/11 12:44:15;;;;;;;7.63;3.35;;;14.20;61.40;;;;;;5106530;28;20879;-80
2022/04/11 12:46:44;;;;;;;4.53;2.95;;;14.20;62.10;;;;;;5109030;28;20202;-80
2022/04/11 12:49:12;;;;;;;4.95;2.80;;;14.20;61.00;;;;;;5115475;28;20251;-78
2022/04/11 12:51:40;;;;;;;4.28;3.58;;;14.10;59.70;;;;;;5112042;28;20300;-82
2022/04/11 12:54:09;;;;;;;5.15;3.72;;;14.30;61.10;;;;;;5109809;28;20230;-79
2022/04/11 12:56:39;;;;;;;6.75;3.00;;;14.40;61.00;;;;;;5103435;28;20237;-82
2022/04/11 12:59:08;;;;;;;8.82;3.17;;;14.30;60.10;;;;;;5102169;28;20266;-80
2022/04/11 13:01:55;;;;;;;5.32;3.10;;;14.40;60.80;;;;;;5104119;28;20735;-80
2022/04/11 13:04:22;;;;;;;5.72;3.22;;;14.50;60.40;;;;;;5103363;28;20558;-79